EW9472 Weather Reports


Display with metric or nautical units.
time (UTC)temp
F
wind
direction
speed
MPH
gust
MPH
rain 1hr
in
rain 24hr
in
rain mn
in
humidity
%
barometer
mb
20191210044800 54 265 2.0 12.0 0.02 1.24 1.24 96 1007.1
20191210043133 54 266 6.0 17.0 0.01 1.23 1.23 96 1007.5
20191210041745 53 240 4.0 13.0 0.01 1.23 1.23 96 1007.3
20191210040203 53 257 3.0 14.0 0.00 1.22 1.22 96 1007.4
20191210034726 53 259 6.0 17.0 0.01 1.22 1.22 96 1007.2
20191210033141 53 269 3.0 18.0 0.01 1.22 1.22 96 1007.3
20191210031644 53 254 2.0 14.0 0.02 1.22 1.22 97 1007.5
20191210030138 53 248 0.0 19.0 0.02 1.22 1.22 96 1007.3
20191210024632 52 261 7.0 15.0 0.02 1.21 1.21 97 1007.6
20191210023113 52 259 4.0 16.0 0.01 1.20 1.20 97 1007.9
20191210021701 52 252 7.0 17.0 0.01 1.20 1.20 97 1007.9
20191210020124 52 263 6.0 19.0 0.01 1.20 1.20 97 1007.7
20191210014614 52 237 1.0 13.0 0.01 1.19 1.19 98 1008.0
20191210013043 52 275 2.0 11.0 0.01 1.19 1.19 98 1008.1
20191210011605 52 256 0.0 12.0 0.03 1.19 1.19 97 1008.4
20191210004706 51 220 0.0 0.0 0.14 1.18 1.18 97 1008.3
20191210003138 51 217 0.0 0.0 0.21 1.18 1.18 97 1008.2
20191210001803 51 232 0.0 0.0 0.25 1.15 1.15 97 1008.5
20191209234606 51 202 2.0 10.0 0.19 1.04 1.04 97 1008.9
20191209233140 51 221 0.0 0.0 0.15 0.97 0.97 97 1009.6
20191209231609 51 221 0.0 4.0 0.12 0.91 0.91 97 1009.6
20191209224627 51 223 0.0 0.0 0.11 0.85 0.85 97 1010.2
20191209223158 51 225 0.0 0.0 0.11 0.82 0.82 97 1010.1
20191209221646 51 225 0.0 6.0 0.13 0.79 0.79 97 1010.5
20191209214614 51 225 0.0 10.0 0.15 0.74 0.74 97 1010.9
20191209213052 51 230 0.0 0.0 0.13 0.70 0.70 97 1011.3
20191209211614 50 236 0.0 0.0 0.11 0.66 0.66 97 1011.5
20191209204651 50 183 0.0 0.0 0.08 0.59 0.59 97 1011.5
20191209203152 50 178 0.0 0.0 0.07 0.56 0.56 97 1011.4
20191209201553 50 181 0.0 8.0 0.06 0.55 0.55 97 1012.0
20191209193129 49 233 0.0 0.0 0.04 0.50 0.50 97 1013.2
20191209191609 49 234 0.0 8.0 0.03 0.49 0.49 97 1013.3
20191209184714 49 264 2.0 8.0 0.02 0.47 0.47 97 1014.0
20191209183325 49 267 0.0 7.0 0.01 0.46 0.46 97 1014.3
20191209181655 49 213 1.0 8.0 0.01 0.46 0.46 98 1014.5
20191209174651 49 251 1.0 10.0 0.00 0.45 0.45 98 1015.0
20191209173129 48 268 2.0 8.0 0.00 0.45 0.45 98 1015.3
20191209171700 48 254 0.0 0.0 0.00 0.45 0.45 98 1015.4
20191209164756 47 136 0.0 0.0 0.00 0.45 0.45 97 1015.5
20191209163205 46 136 0.0 0.0 0.00 0.45 0.45 97 1015.8
20191209161734 45 136 0.0 0.0 0.00 0.45 0.45 97 1015.8
20191209154651 44 134 0.0 0.0 0.00 0.45 0.45 97 1016.9
20191209153157 44 134 0.0 0.0 0.01 0.45 0.45 97 1017.2
20191209151608 44 134 0.0 0.0 0.02 0.45 0.45 97 1017.2
20191209144607 44 134 0.0 0.0 0.04 0.45 0.45 97 1017.3
20191209143132 43 134 0.0 0.0 0.05 0.44 0.44 97 1017.7
20191209141631 43 134 0.0 0.0 0.06 0.43 0.43 97 1017.7
20191209134610 42 134 0.0 0.0 0.10 0.41 0.41 97 1018.2
20191209133203 42 134 0.0 0.0 0.09 0.39 0.39 97 1018.5
20191209131550 42 134 0.0 0.0 0.10 0.37 0.37 97 1018.6
20191209130027 41 138 0.0 0.0 0.11 0.34 0.34 97 1018.8
20191209124508 41 136 0.0 0.0 0.12 0.31 0.31 97 1019.1
20191209123019 41 137 0.0 0.0 0.14 0.30 0.30 97 1019.3
20191209121503 41 140 0.0 0.0 0.15 0.27 0.27 96 1019.9
20191209114625 40 140 0.0 0.0 0.11 0.19 0.19 96 1020.4
20191209113133 40 140 0.0 0.0 0.09 0.16 0.16 96 1020.4
20191209111721 40 172 0.0 0.0 0.07 0.12 0.12 96 1020.6
20191209110133 40 173 0.0 0.0 0.06 0.10 0.10 96 1020.8
20191209104603 39 187 0.0 0.0 0.06 0.08 0.08 96 1021.2
20191209103047 39 188 0.0 0.0 0.05 0.07 0.07 96 1021.6
20191209101540 39 192 0.0 0.0 0.03 0.05 0.05 96 1022.0
20191209100122 39 194 0.0 0.0 0.03 0.04 0.04 96 1022.1
20191209094546 38 194 0.0 0.0 0.01 0.02 0.02 96 1022.6
20191209093039 38 194 0.0 0.0 0.01 0.02 0.02 96 1022.7
20191209090111 38 193 0.0 0.0 0.00 0.01 0.01 95 1023.3
20191209084543 38 194 0.0 0.0 0.00 0.01 0.01 95 1023.5
20191209083048 38 193 0.0 0.0 0.00 0.01 0.01 95 1023.5
20191209081546 38 194 0.0 0.0 0.00 0.01 0.01 94 1024.0
20191209080037 38 193 0.0 0.0 0.00 0.01 0.01 94 1024.2
20191209074521 37 194 0.0 0.0 0.00 0.01 0.01 94 1024.5
20191209073022 38 193 0.0 0.0 0.01 0.01 0.01 94 1024.5
20191209071509 37 194 0.0 0.0 0.01 0.01 0.01 94 1024.8
20191209070004 37 194 0.0 0.0 0.01 0.01 0.01 93 1025.1
20191209063244 37 193 0.0 0.0 0.00 0.00 0.00 92 1025.4
20191209061656 36 193 0.0 0.0 0.00 0.00 0.00 92 1025.7
20191209060150 36 193 0.0 0.0 0.00 0.00 0.00 91 1026.0
20191209054711 36 193 0.0 0.0 0.00 0.00 0.00 90 1026.2
20191209053216 36 194 0.0 0.0 0.00 0.00 0.00 89 1026.4
20191209051705 36 194 0.0 0.0 0.00 0.00 0.00 88 1026.8
20191209050125 35 193 0.0 0.0 0.00 0.00 0.00 88 1026.8